Time;durP1;ratioP1;P1;durP2;ratioP2;P2;SDS_P1;SDS_P2;PMS_P1;PMS_P2;Temp;Humidity;BMP_temperature;BMP_pressure;BME280_temperature;BME280_humidity;BME280_pressure;Samples;Min_cycle;Max_cycle;Signal;HPM_P1;HPM_P2
2024/02/23 00:00:13;;;;;;;1.65;0.75;;;22.20;50.90;;;;;;5075835;28;20027;-64
2024/02/23 00:02:39;;;;;;;1.95;0.90;;;22.10;50.90;;;;;;5077411;28;20030;-63
2024/02/23 00:05:05;;;;;;;1.45;0.80;;;22.20;51.00;;;;;;5079196;28;20028;-63
2024/02/23 00:07:30;;;;;;;1.55;0.80;;;22.10;50.90;;;;;;5081090;28;20094;-64
2024/02/23 00:09:56;;;;;;;2.13;0.85;;;22.10;50.80;;;;;;5083296;28;20572;-64
2024/02/23 00:12:21;;;;;;;1.35;0.82;;;22.10;50.90;;;;;;5079975;28;20028;-64
2024/02/23 00:14:47;;;;;;;1.33;0.70;;;22.10;50.90;;;;;;5082100;28;20558;-64
2024/02/23 00:17:13;;;;;;;3.55;0.90;;;22.10;50.90;;;;;;5080340;28;20028;-64
2024/02/23 00:19:42;;;;;;;1.38;0.70;;;22.10;50.90;;;;;;5065092;28;20081;-64
2024/02/23 00:22:07;;;;;;;1.42;0.80;;;22.00;50.80;;;;;;5080304;28;20095;-67
2024/02/23 00:24:33;;;;;;;1.15;0.70;;;22.10;50.80;;;;;;5080900;28;20107;-67
2024/02/23 00:26:59;;;;;;;1.30;0.77;;;22.00;50.70;;;;;;5082104;28;20095;-68
2024/02/23 00:29:24;;;;;;;2.22;0.73;;;22.00;50.70;;;;;;5079364;28;20112;-67
2024/02/23 00:31:50;;;;;;;1.27;0.77;;;22.00;50.70;;;;;;5083716;28;20028;-67
2024/02/23 00:34:16;;;;;;;0.80;0.60;;;22.00;50.70;;;;;;5082339;28;20124;-67
2024/02/23 00:36:44;;;;;;;2.20;0.80;;;21.90;50.60;;;;;;5081267;28;20416;-67
2024/02/23 00:39:10;;;;;;;1.30;0.70;;;21.90;50.70;;;;;;5079252;28;20028;-67
2024/02/23 00:41:36;;;;;;;0.90;0.60;;;21.90;50.70;;;;;;5080088;28;20078;-68
2024/02/23 00:44:03;;;;;;;1.15;0.60;;;21.90;50.70;;;;;;5079310;28;20079;-67
2024/02/23 00:46:28;;;;;;;0.90;0.60;;;21.90;50.70;;;;;;5081007;28;20017;-67
2024/02/23 00:48:54;;;;;;;1.45;0.63;;;21.90;50.70;;;;;;5064346;28;20396;-68
2024/02/23 00:51:20;;;;;;;0.98;0.65;;;21.90;50.60;;;;;;5081127;28;20032;-67
2024/02/23 00:53:45;;;;;;;0.65;0.50;;;21.90;50.70;;;;;;5081380;28;20111;-67
2024/02/23 00:56:12;;;;;;;1.50;0.70;;;21.90;50.70;;;;;;5080678;28;20369;-67
2024/02/23 00:58:38;;;;;;;1.13;0.63;;;21.90;50.80;;;;;;5062186;28;20054;-67
2024/02/23 01:01:04;;;;;;;0.95;0.60;;;21.80;50.80;;;;;;5080097;28;20123;-67
2024/02/23 01:03:30;;;;;;;1.90;0.70;;;21.80;50.80;;;;;;5076364;28;20032;-68
2024/02/23 01:05:56;;;;;;;1.60;0.90;;;21.80;50.80;;;;;;5081596;28;20020;-68
2024/02/23 01:08:21;;;;;;;1.27;0.75;;;21.80;50.90;;;;;;5079958;28;20385;-67
2024/02/23 01:10:47;;;;;;;1.88;0.80;;;21.80;50.90;;;;;;5070139;28;20619;-68
2024/02/23 01:13:12;;;;;;;1.25;0.70;;;21.80;50.90;;;;;;5078098;28;20369;-68
2024/02/23 01:15:38;;;;;;;1.08;0.70;;;21.80;50.90;;;;;;5081483;28;20036;-68
2024/02/23 01:18:05;;;;;;;1.77;0.68;;;21.80;51.00;;;;;;5058005;28;20089;-67
2024/02/23 01:20:31;;;;;;;1.17;0.68;;;21.80;51.00;;;;;;5059707;28;20066;-66
2024/02/23 01:22:57;;;;;;;0.70;0.55;;;21.80;51.00;;;;;;5059756;28;20017;-66
2024/02/23 01:25:22;;;;;;;1.08;0.68;;;21.70;51.00;;;;;;5058230;28;20028;-66
2024/02/23 01:27:48;;;;;;;0.68;0.60;;;21.70;51.00;;;;;;5058843;28;20094;-66
2024/02/23 01:30:14;;;;;;;1.48;0.70;;;21.70;51.00;;;;;;5059156;28;20021;-67
2024/02/23 01:32:40;;;;;;;1.48;0.60;;;21.70;51.00;;;;;;5059407;28;20029;-67
2024/02/23 01:35:06;;;;;;;0.85;0.63;;;21.70;51.00;;;;;;5059274;28;20025;-67
2024/02/23 01:37:32;;;;;;;0.98;0.60;;;21.70;51.00;;;;;;5062142;28;20068;-67
2024/02/23 01:39:58;;;;;;;1.33;0.77;;;21.70;51.10;;;;;;5059813;28;20108;-67
2024/02/23 01:42:25;;;;;;;1.15;0.70;;;21.70;51.10;;;;;;5059602;28;20032;-67
2024/02/23 01:44:51;;;;;;;1.20;0.65;;;21.70;51.10;;;;;;5056437;28;20460;-67
2024/02/23 01:47:17;;;;;;;0.75;0.60;;;21.60;51.10;;;;;;5057702;28;20021;-67
2024/02/23 01:49:45;;;;;;;1.30;0.70;;;21.70;51.10;;;;;;5060321;28;20028;-67
2024/02/23 01:52:11;;;;;;;1.30;0.52;;;21.60;51.10;;;;;;5060191;28;20485;-67
2024/02/23 01:54:37;;;;;;;0.63;0.60;;;21.60;51.10;;;;;;5058398;28;20125;-67
2024/02/23 01:57:03;;;;;;;1.05;0.63;;;21.60;51.10;;;;;;5057668;28;20057;-67
2024/02/23 01:59:29;;;;;;;1.85;0.80;;;21.60;51.10;;;;;;5058947;28;20083;-67
2024/02/23 02:01:55;;;;;;;1.77;0.65;;;21.60;51.20;;;;;;5059521;28;20075;-67
2024/02/23 02:04:21;;;;;;;0.98;0.60;;;21.60;51.20;;;;;;5059932;28;20020;-67
2024/02/23 02:06:48;;;;;;;0.95;0.70;;;21.60;51.20;;;;;;5060206;28;20104;-67
2024/02/23 02:09:14;;;;;;;0.75;0.60;;;21.60;51.20;;;;;;5057192;28;20021;-66
2024/02/23 02:11:49;;;;;;;1.13;0.65;;;21.60;51.20;;;;;;5060967;28;20031;-64
2024/02/23 02:14:15;;;;;;;1.05;0.60;;;21.60;51.70;;;;;;5055645;28;20477;-64
2024/02/23 02:16:41;;;;;;;1.23;0.60;;;21.60;51.20;;;;;;5059168;28;20074;-64
2024/02/23 02:19:07;;;;;;;1.23;0.60;;;21.50;51.20;;;;;;5072209;28;20431;-64
2024/02/23 02:21:34;;;;;;;1.70;0.60;;;21.50;51.20;;;;;;5078885;28;20044;-64
2024/02/23 02:23:59;;;;;;;1.30;0.70;;;21.50;51.20;;;;;;5079308;28;20102;-63
2024/02/23 02:26:25;;;;;;;1.50;0.80;;;21.50;51.20;;;;;;5078616;28;20028;-63
2024/02/23 02:28:52;;;;;;;0.80;0.50;;;21.50;51.30;;;;;;5076370;28;20032;-63
2024/02/23 02:31:18;;;;;;;2.10;0.70;;;21.50;51.20;;;;;;5079081;28;20027;-68
2024/02/23 02:33:44;;;;;;;0.93;0.70;;;21.50;51.30;;;;;;5079274;28;20036;-68
2024/02/23 02:36:10;;;;;;;1.27;0.80;;;21.50;51.30;;;;;;5079329;28;20042;-68
2024/02/23 02:38:35;;;;;;;1.50;0.73;;;21.50;51.30;;;;;;5079700;28;20123;-68
2024/02/23 02:41:01;;;;;;;1.02;0.50;;;21.50;51.30;;;;;;5078960;28;20028;-65
2024/02/23 02:43:27;;;;;;;1.23;0.65;;;21.40;51.30;;;;;;5075270;28;20020;-66
2024/02/23 02:45:53;;;;;;;1.88;0.70;;;21.50;51.30;;;;;;5079784;28;20040;-66
2024/02/23 02:48:18;;;;;;;1.08;0.60;;;21.40;51.30;;;;;;5079134;28;20024;-66
2024/02/23 02:50:44;;;;;;;0.90;0.60;;;21.40;51.30;;;;;;5079752;28;20562;-65
2024/02/23 02:53:10;;;;;;;0.77;0.60;;;21.40;51.30;;;;;;5079089;28;20033;-66
2024/02/23 02:55:37;;;;;;;0.90;0.60;;;21.40;51.30;;;;;;5059564;28;20035;-66
2024/02/23 02:58:02;;;;;;;1.02;0.70;;;21.40;51.30;;;;;;5079310;28;20035;-66
2024/02/23 03:00:28;;;;;;;1.10;0.68;;;21.40;51.30;;;;;;5077566;28;20380;-66
2024/02/23 03:02:54;;;;;;;0.98;0.60;;;21.40;51.30;;;;;;5079523;28;20021;-66
2024/02/23 03:05:19;;;;;;;1.00;0.60;;;21.40;51.30;;;;;;5078714;28;20506;-66
2024/02/23 03:07:45;;;;;;;0.80;0.60;;;21.40;51.30;;;;;;5079968;28;20017;-66
2024/02/23 03:10:11;;;;;;;1.38;0.90;;;21.40;51.30;;;;;;5078333;28;20116;-66
2024/02/23 03:12:36;;;;;;;0.85;0.60;;;21.40;51.30;;;;;;5078243;28;20101;-66
2024/02/23 03:15:02;;;;;;;1.17;0.60;;;21.40;51.40;;;;;;5078751;28;20033;-65
2024/02/23 03:17:29;;;;;;;0.55;0.50;;;21.30;51.30;;;;;;5078511;28;20028;-66
2024/02/23 03:19:54;;;;;;;1.15;0.70;;;21.30;51.30;;;;;;5078869;28;20077;-64
2024/02/23 03:22:20;;;;;;;1.15;0.52;;;21.30;51.30;;;;;;5078026;28;20095;-63
2024/02/23 03:24:45;;;;;;;1.23;0.70;;;21.30;51.30;;;;;;5079389;28;20026;-63
2024/02/23 03:27:11;;;;;;;1.17;0.70;;;21.30;51.30;;;;;;5077082;28;20033;-64
2024/02/23 03:29:38;;;;;;;0.60;0.52;;;21.30;51.40;;;;;;5076663;28;20024;-64
2024/02/23 03:32:04;;;;;;;0.75;0.50;;;21.30;51.40;;;;;;5078196;28;20161;-63
2024/02/23 03:34:30;;;;;;;1.00;0.60;;;21.30;51.40;;;;;;5080261;28;20491;-63
2024/02/23 03:36:55;;;;;;;0.90;0.60;;;21.30;51.40;;;;;;5079679;28;20028;-63
2024/02/23 03:39:21;;;;;;;0.52;0.50;;;21.30;51.40;;;;;;5079705;28;20082;-63
2024/02/23 03:41:47;;;;;;;0.73;0.60;;;21.30;51.40;;;;;;5083103;28;20020;-67
2024/02/23 03:44:12;;;;;;;0.63;0.50;;;21.20;51.30;;;;;;5061156;28;20055;-68
2024/02/23 03:46:38;;;;;;;0.55;0.52;;;21.20;51.40;;;;;;5080347;28;20115;-68
2024/02/23 03:49:03;;;;;;;1.13;0.70;;;21.20;51.40;;;;;;5063919;28;20099;-68
2024/02/23 03:51:29;;;;;;;0.70;0.57;;;21.30;51.50;;;;;;5082670;28;20101;-63
2024/02/23 03:53:55;;;;;;;1.25;0.50;;;21.30;51.80;;;;;;5081287;28;20112;-64
2024/02/23 03:56:20;;;;;;;1.15;0.70;;;21.20;51.40;;;;;;5080947;28;20060;-64
2024/02/23 03:58:46;;;;;;;0.73;0.50;;;21.20;51.50;;;;;;5080300;28;20488;-63
2024/02/23 04:01:11;;;;;;;0.73;0.52;;;21.20;51.50;;;;;;5081849;28;20020;-64
2024/02/23 04:03:37;;;;;;;0.57;0.50;;;21.20;51.50;;;;;;5078287;28;20024;-64
2024/02/23 04:06:03;;;;;;;0.95;0.63;;;21.20;51.50;;;;;;5084576;28;20032;-64
2024/02/23 04:08:28;;;;;;;0.70;0.70;;;21.20;51.50;;;;;;5083096;28;20790;-63
2024/02/23 04:10:54;;;;;;;0.63;0.52;;;21.20;51.50;;;;;;5064074;28;20064;-64
2024/02/23 04:13:20;;;;;;;1.27;0.50;;;21.20;51.50;;;;;;5083949;28;20028;-63
2024/02/23 04:15:45;;;;;;;0.40;0.40;;;21.10;51.50;;;;;;5079257;28;20522;-62
2024/02/23 04:18:11;;;;;;;0.88;0.60;;;21.20;51.50;;;;;;5079757;28;20502;-64
2024/02/23 04:20:37;;;;;;;1.10;0.55;;;21.20;51.60;;;;;;5080819;28;20502;-63
2024/02/23 04:23:02;;;;;;;1.02;0.60;;;21.10;51.50;;;;;;5081415;28;20021;-65
2024/02/23 04:25:28;;;;;;;0.77;0.60;;;21.10;51.50;;;;;;5082348;28;20032;-63
2024/02/23 04:27:54;;;;;;;0.80;0.60;;;21.10;51.50;;;;;;5081743;28;20044;-63
2024/02/23 04:30:19;;;;;;;1.38;0.68;;;21.10;51.50;;;;;;5079836;28;20039;-67
2024/02/23 04:32:45;;;;;;;1.15;0.57;;;21.10;51.60;;;;;;5082097;28;20048;-67
2024/02/23 04:35:11;;;;;;;1.02;0.50;;;21.10;51.60;;;;;;5082224;28;20028;-67
2024/02/23 04:37:36;;;;;;;0.57;0.50;;;21.10;51.60;;;;;;5084837;28;20392;-67
2024/02/23 04:40:04;;;;;;;0.82;0.57;;;21.10;52.10;;;;;;5082236;28;20036;-67
2024/02/23 04:42:29;;;;;;;0.60;0.50;;;21.10;51.60;;;;;;5081751;28;20443;-67
2024/02/23 04:44:55;;;;;;;0.95;0.60;;;21.10;51.60;;;;;;5079922;28;20052;-68
2024/02/23 04:47:21;;;;;;;1.08;0.50;;;21.10;51.60;;;;;;5084119;28;20385;-67
2024/02/23 04:49:46;;;;;;;1.38;0.85;;;21.10;52.20;;;;;;5098364;28;20071;-67
2024/02/23 04:52:12;;;;;;;0.40;0.40;;;21.10;51.70;;;;;;5078996;28;20043;-66
2024/02/23 04:54:38;;;;;;;0.43;0.40;;;21.10;51.70;;;;;;5080052;28;20416;-66
2024/02/23 04:57:03;;;;;;;0.75;0.50;;;21.00;51.60;;;;;;5081590;28;20024;-66
2024/02/23 04:59:31;;;;;;;0.80;0.50;;;21.00;51.60;;;;;;5079444;28;20039;-66
2024/02/23 05:01:57;;;;;;;0.57;0.50;;;21.10;51.70;;;;;;5080622;28;20035;-68
2024/02/23 05:04:23;;;;;;;1.17;0.60;;;21.00;51.60;;;;;;5081011;28;20028;-68
2024/02/23 05:06:48;;;;;;;1.05;0.47;;;21.00;51.60;;;;;;5080728;28;20079;-68
2024/02/23 05:09:14;;;;;;;0.68;0.50;;;21.00;51.60;;;;;;5079273;28;20027;-68
2024/02/23 05:11:40;;;;;;;0.63;0.50;;;21.00;51.60;;;;;;5079774;28;20403;-67
2024/02/23 05:14:05;;;;;;;0.73;0.50;;;21.00;51.70;;;;;;5081075;28;20471;-68
2024/02/23 05:16:31;;;;;;;1.00;0.50;;;21.00;51.70;;;;;;5079098;28;20031;-68
2024/02/23 05:18:57;;;;;;;0.50;0.50;;;21.00;51.70;;;;;;5077875;28;20032;-68
2024/02/23 05:21:22;;;;;;;0.45;0.45;;;21.00;51.70;;;;;;5079725;28;20033;-68
2024/02/23 05:23:48;;;;;;;1.13;0.52;;;21.00;51.80;;;;;;5080298;28;20504;-68
2024/02/23 05:26:14;;;;;;;1.13;0.50;;;21.00;51.80;;;;;;5080608;28;20039;-68
2024/02/23 05:28:39;;;;;;;0.40;0.40;;;21.00;51.80;;;;;;5082101;28;20173;-68
2024/02/23 05:31:05;;;;;;;0.80;0.50;;;21.00;51.80;;;;;;5078639;28;20032;-68
2024/02/23 05:33:30;;;;;;;0.73;0.50;;;21.00;51.80;;;;;;5079682;28;20017;-68
2024/02/23 05:35:56;;;;;;;0.43;0.40;;;21.00;51.80;;;;;;5080932;28;20024;-68
2024/02/23 05:38:22;;;;;;;1.33;0.50;;;21.00;51.90;;;;;;5081048;28;20092;-68
2024/02/23 05:40:48;;;;;;;0.65;0.40;;;21.00;51.90;;;;;;5078471;28;20079;-63
2024/02/23 05:43:14;;;;;;;0.70;0.60;;;20.90;51.90;;;;;;5079635;28;20012;-64
2024/02/23 05:45:39;;;;;;;1.08;0.60;;;21.00;51.90;;;;;;5060539;28;20358;-64
2024/02/23 05:48:06;;;;;;;0.90;0.50;;;21.00;51.90;;;;;;5077842;28;20028;-63
2024/02/23 05:50:32;;;;;;;0.55;0.43;;;21.00;51.90;;;;;;5081795;28;20028;-64
2024/02/23 05:52:58;;;;;;;0.75;0.60;;;21.00;51.90;;;;;;5081523;28;20401;-64
2024/02/23 05:55:24;;;;;;;0.82;0.60;;;21.00;51.90;;;;;;5078818;28;20021;-63
2024/02/23 05:57:50;;;;;;;0.70;0.60;;;20.90;51.90;;;;;;5080570;28;20028;-63
2024/02/23 06:00:18;;;;;;;0.95;0.57;;;21.00;52.00;;;;;;5078297;28;20036;-64
2024/02/23 06:02:44;;;;;;;0.93;0.50;;;20.90;52.00;;;;;;5078233;28;20108;-63
2024/02/23 06:05:11;;;;;;;0.60;0.47;;;20.90;52.10;;;;;;5078957;28;20095;-63
2024/02/23 06:07:37;;;;;;;1.33;0.70;;;20.90;52.20;;;;;;5078609;28;20039;-64
2024/02/23 06:10:03;;;;;;;1.05;0.60;;;20.90;52.10;;;;;;5095694;28;20023;-63
2024/02/23 06:12:29;;;;;;;0.90;0.70;;;20.90;52.20;;;;;;5077456;28;20020;-65
2024/02/23 06:14:56;;;;;;;1.90;0.80;;;20.90;52.30;;;;;;5078982;28;20489;-65
2024/02/23 06:17:23;;;;;;;2.00;0.70;;;20.90;52.30;;;;;;5079871;28;20152;-66
2024/02/23 06:19:48;;;;;;;1.33;0.80;;;20.90;52.40;;;;;;5078955;28;20032;-66
2024/02/23 06:22:16;;;;;;;1.70;0.82;;;20.90;52.40;;;;;;5080431;28;20036;-65
2024/02/23 06:24:42;;;;;;;1.58;0.88;;;20.90;52.40;;;;;;5079268;28;20476;-66
2024/02/23 06:27:08;;;;;;;3.28;1.00;;;20.90;52.50;;;;;;5077910;28;20045;-66
2024/02/23 06:29:34;;;;;;;3.42;0.90;;;20.90;52.60;;;;;;5079188;28;20411;-65
2024/02/23 06:32:02;;;;;;;2.28;1.00;;;20.90;52.50;;;;;;5058651;28;20039;-66
2024/02/23 06:34:28;;;;;;;2.80;1.10;;;20.90;52.60;;;;;;5079230;28;20111;-65
2024/02/23 06:36:54;;;;;;;2.38;0.90;;;20.90;52.70;;;;;;5080340;28;20122;-65
2024/02/23 06:39:19;;;;;;;1.75;0.90;;;20.90;52.80;;;;;;5078120;28;20258;-65
2024/02/23 06:41:45;;;;;;;3.00;0.82;;;20.90;53.00;;;;;;5079330;28;20027;-65
2024/02/23 06:44:11;;;;;;;3.47;1.00;;;20.90;53.00;;;;;;5077908;28;20028;-65
2024/02/23 06:46:37;;;;;;;4.50;1.20;;;21.00;53.90;;;;;;5076653;28;20028;-65
2024/02/23 06:49:04;;;;;;;2.22;1.10;;;21.00;53.50;;;;;;5076423;28;20037;-65
2024/02/23 06:51:31;;;;;;;3.03;1.20;;;21.20;53.80;;;;;;5080417;28;20097;-65
2024/02/23 06:53:56;;;;;;;2.95;1.10;;;21.30;53.60;;;;;;5078510;28;20086;-66
2024/02/23 06:56:22;;;;;;;3.08;1.20;;;21.30;53.80;;;;;;5079008;28;20557;-64
2024/02/23 06:58:48;;;;;;;3.40;1.10;;;21.50;53.20;;;;;;5078437;28;20043;-65
2024/02/23 07:01:14;;;;;;;1.95;0.93;;;21.60;53.00;;;;;;5076050;28;20036;-65
2024/02/23 07:03:41;;;;;;;4.03;1.17;;;21.70;52.70;;;;;;5077579;28;20105;-66
2024/02/23 07:06:07;;;;;;;2.30;1.17;;;21.80;52.30;;;;;;5079444;28;20413;-66
2024/02/23 07:08:32;;;;;;;2.97;1.10;;;21.80;52.00;;;;;;5079115;28;20090;-65
2024/02/23 07:10:58;;;;;;;1.77;1.02;;;21.90;51.80;;;;;;5079655;28;20039;-65
2024/02/23 07:13:23;;;;;;;2.67;0.90;;;21.80;51.70;;;;;;5077935;28;20032;-66
2024/02/23 07:15:49;;;;;;;2.70;1.05;;;21.90;51.80;;;;;;5077841;28;20032;-66
2024/02/23 07:18:16;;;;;;;2.25;1.08;;;21.90;51.80;;;;;;5059157;28;20356;-66
2024/02/23 07:20:41;;;;;;;2.92;1.08;;;21.90;52.30;;;;;;5078084;28;20024;-64
2024/02/23 07:23:07;;;;;;;3.35;1.23;;;22.00;51.70;;;;;;5061673;28;20026;-64
2024/02/23 07:25:33;;;;;;;2.83;1.20;;;21.90;51.60;;;;;;5079293;28;20239;-64
2024/02/23 07:27:58;;;;;;;2.00;1.00;;;21.90;51.50;;;;;;5079149;28;20103;-64
2024/02/23 07:30:24;;;;;;;1.55;0.90;;;21.90;51.70;;;;;;5076874;28;20462;-64
2024/02/23 07:32:50;;;;;;;2.55;0.93;;;22.00;51.70;;;;;;5078772;28;20062;-64
2024/02/23 07:35:15;;;;;;;2.65;0.95;;;22.10;51.40;;;;;;5077636;28;20071;-63
2024/02/23 07:37:41;;;;;;;2.45;0.90;;;22.10;51.30;;;;;;5077175;28;20031;-65
2024/02/23 07:40:07;;;;;;;2.38;1.10;;;22.10;51.30;;;;;;5078925;28;20166;-63
2024/02/23 07:42:35;;;;;;;2.80;1.20;;;22.10;51.40;;;;;;5077603;28;20017;-65
2024/02/23 07:45:04;;;;;;;3.83;1.10;;;22.20;51.60;;;;;;5078054;28;20070;-64
2024/02/23 07:47:33;;;;;;;1.52;0.90;;;22.20;51.20;;;;;;5078225;28;20453;-63
2024/02/23 07:49:59;;;;;;;2.65;0.82;;;22.30;51.10;;;;;;5078476;28;20488;-65
2024/02/23 07:52:25;;;;;;;2.65;1.10;;;22.30;51.20;;;;;;5080183;28;20044;-64
2024/02/23 07:54:54;;;;;;;2.22;1.10;;;22.30;51.20;;;;;;5077539;28;20479;-64
2024/02/23 07:57:20;;;;;;;2.47;1.10;;;22.30;51.30;;;;;;5077629;28;20031;-64
2024/02/23 07:59:46;;;;;;;3.05;1.10;;;22.40;51.20;;;;;;5079615;28;20124;-63
2024/02/23 08:02:11;;;;;;;3.28;1.10;;;22.60;50.80;;;;;;5076708;28;20450;-66
2024/02/23 08:04:37;;;;;;;2.53;1.10;;;22.60;50.50;;;;;;5079954;28;20016;-64
2024/02/23 08:07:04;;;;;;;2.50;1.20;;;22.60;50.60;;;;;;5076387;28;20025;-65
2024/02/23 08:09:29;;;;;;;1.10;0.80;;;22.60;50.70;;;;;;5077066;28;20025;-64
2024/02/23 08:11:55;;;;;;;3.50;1.10;;;22.60;51.10;;;;;;5077288;28;20043;-63
2024/02/23 08:14:20;;;;;;;3.58;1.00;;;22.60;51.00;;;;;;5079348;28;20463;-63
2024/02/23 08:16:46;;;;;;;2.60;1.33;;;22.70;50.60;;;;;;5076889;28;20920;-64
2024/02/23 08:19:12;;;;;;;2.78;1.15;;;22.70;50.50;;;;;;5078292;28;20036;-64
2024/02/23 08:21:37;;;;;;;3.03;1.13;;;22.80;50.50;;;;;;5078849;28;20025;-68
2024/02/23 08:24:03;;;;;;;2.75;1.00;;;22.70;50.60;;;;;;5062003;28;20024;-68
2024/02/23 08:26:29;;;;;;;2.97;1.25;;;22.70;50.60;;;;;;5080552;28;20055;-68
2024/02/23 08:28:55;;;;;;;2.10;0.90;;;22.70;50.50;;;;;;5083779;28;20844;-68
2024/02/23 08:31:21;;;;;;;2.90;1.00;;;22.70;50.80;;;;;;5080436;28;20028;-68
2024/02/23 08:33:46;;;;;;;2.42;1.00;;;22.70;51.00;;;;;;5080395;28;20073;-68
2024/02/23 08:36:12;;;;;;;1.70;0.95;;;22.70;50.90;;;;;;5081633;28;20032;-68
2024/02/23 08:38:38;;;;;;;3.85;1.15;;;22.70;51.00;;;;;;5084398;28;20047;-68
2024/02/23 08:41:04;;;;;;;1.70;0.90;;;22.70;50.80;;;;;;5065539;28;20023;-68
2024/02/23 08:43:29;;;;;;;2.45;1.40;;;22.70;50.70;;;;;;5079323;28;20039;-68
2024/02/23 08:45:55;;;;;;;2.28;1.00;;;22.80;50.60;;;;;;5080214;28;20656;-67
2024/02/23 08:48:20;;;;;;;3.20;1.20;;;22.70;50.70;;;;;;5080710;28;20036;-68
2024/02/23 08:50:46;;;;;;;2.50;1.10;;;22.70;51.00;;;;;;5080850;28;20111;-68
2024/02/23 08:53:12;;;;;;;1.95;1.00;;;22.70;51.20;;;;;;5081148;28;20024;-68
2024/02/23 08:55:37;;;;;;;2.03;0.90;;;22.70;51.10;;;;;;5080680;28;20037;-67
2024/02/23 08:58:05;;;;;;;1.83;1.05;;;22.70;51.40;;;;;;5081714;28;20055;-67
2024/02/23 09:00:31;;;;;;;2.28;1.10;;;22.70;51.30;;;;;;5080865;28;20030;-67
2024/02/23 09:02:56;;;;;;;2.40;1.00;;;22.70;51.20;;;;;;5080745;28;20508;-68
2024/02/23 09:05:22;;;;;;;2.95;1.02;;;22.70;51.20;;;;;;5083161;28;20027;-68
2024/02/23 09:07:48;;;;;;;1.30;0.80;;;22.70;51.70;;;;;;5083368;28;20035;-68
2024/02/23 09:10:13;;;;;;;2.35;0.80;;;22.70;51.90;;;;;;5081066;28;20051;-68
2024/02/23 09:12:39;;;;;;;1.83;0.90;;;22.60;52.20;;;;;;5081181;28;20036;-68
2024/02/23 09:15:05;;;;;;;2.22;0.90;;;22.70;52.40;;;;;;5081393;28;20421;-67
2024/02/23 09:17:32;;;;;;;2.22;0.95;;;22.60;52.70;;;;;;5060318;28;20028;-68
2024/02/23 09:19:57;;;;;;;1.50;0.85;;;22.60;52.60;;;;;;5079793;28;20029;-68
2024/02/23 09:22:23;;;;;;;1.88;0.90;;;22.60;52.70;;;;;;5078865;28;20062;-67
2024/02/23 09:24:49;;;;;;;2.75;0.90;;;22.70;52.30;;;;;;5080375;28;20028;-67
2024/02/23 09:27:14;;;;;;;1.80;0.98;;;22.60;52.00;;;;;;5079273;28;20020;-68
2024/02/23 09:29:44;;;;;;;2.40;1.00;;;22.70;52.00;;;;;;5081681;28;20473;-68
2024/02/23 09:32:09;;;;;;;;;;;22.60;52.00;;;;;;5079628;28;20460;-67
2024/02/23 09:34:35;;;;;;;2.20;1.08;;;22.60;52.10;;;;;;5077430;28;19908;-67
2024/02/23 09:37:01;;;;;;;1.83;1.00;;;22.60;51.90;;;;;;5080527;28;20024;-68
2024/02/23 09:39:29;;;;;;;2.95;0.95;;;22.70;52.20;;;;;;5078295;28;20516;-68
2024/02/23 09:41:56;;;;;;;3.90;1.02;;;22.60;52.40;;;;;;5078920;28;20024;-67
2024/02/23 09:44:22;;;;;;;2.60;0.90;;;22.60;52.70;;;;;;5077992;28;20020;-67
2024/02/23 09:46:49;;;;;;;1.45;0.82;;;22.60;52.30;;;;;;5077546;28;20090;-67
2024/02/23 09:49:16;;;;;;;1.25;0.90;;;22.70;52.30;;;;;;5078613;28;20024;-68
2024/02/23 09:51:43;;;;;;;1.88;0.80;;;22.60;52.30;;;;;;5079126;28;20020;-68
2024/02/23 09:54:10;;;;;;;1.70;0.85;;;22.60;52.60;;;;;;5079958;28;20025;-68
2024/02/23 09:56:37;;;;;;;1.83;0.80;;;22.60;52.60;;;;;;5060861;28;20455;-68
2024/02/23 09:59:03;;;;;;;4.03;0.90;;;22.60;52.90;;;;;;5078867;28;20052;-68
2024/02/23 10:01:31;;;;;;;2.08;0.90;;;22.60;52.50;;;;;;5079019;28;20058;-67
2024/02/23 10:03:57;;;;;;;2.70;1.20;;;22.60;53.00;;;;;;5081603;28;20962;-68
2024/02/23 10:06:27;;;;;;;1.92;0.82;;;22.60;52.30;;;;;;5078767;28;20082;-68
2024/02/23 10:08:56;;;;;;;2.00;1.10;;;22.60;52.30;;;;;;5079449;28;20484;-68
2024/02/23 10:11:22;;;;;;;1.85;0.82;;;22.60;52.70;;;;;;5081134;28;20476;-68
2024/02/23 10:13:52;;;;;;;2.22;0.80;;;22.60;52.10;;;;;;5078626;28;20047;-68
2024/02/23 10:16:20;;;;;;;2.63;0.90;;;22.70;52.00;;;;;;5079324;28;20020;-68
2024/02/23 10:18:48;;;;;;;2.00;0.90;;;22.60;52.00;;;;;;5077293;28;20122;-68
2024/02/23 10:21:14;;;;;;;1.90;0.85;;;22.60;52.00;;;;;;5079979;28;20029;-67
2024/02/23 10:23:41;;;;;;;1.48;0.90;;;22.60;52.00;;;;;;5078836;28;20594;-68
2024/02/23 10:26:08;;;;;;;1.88;0.90;;;22.60;51.90;;;;;;5080573;28;20024;-68
2024/02/23 10:28:35;;;;;;;2.22;1.00;;;22.60;52.50;;;;;;5080780;28;20059;-67
2024/02/23 10:31:01;;;;;;;2.60;0.90;;;22.60;51.90;;;;;;5079735;28;20072;-68
2024/02/23 10:33:28;;;;;;;2.50;0.90;;;22.60;52.40;;;;;;5076276;28;20024;-67
2024/02/23 10:35:59;;;;;;;1.88;0.80;;;22.60;51.90;;;;;;5078251;28;20028;-67
2024/02/23 10:38:26;;;;;;;2.42;0.88;;;22.60;51.90;;;;;;5082148;28;20021;-69
2024/02/23 10:40:56;;;;;;;2.28;0.90;;;22.60;51.90;;;;;;5079176;28;20025;-68
2024/02/23 10:43:32;;;;;;;1.38;0.80;;;22.60;51.90;;;;;;5078598;28;20027;-67
2024/02/23 10:46:02;;;;;;;1.85;0.90;;;22.60;51.90;;;;;;5079187;28;20020;-66
2024/02/23 10:48:28;;;;;;;1.77;0.80;;;22.60;51.90;;;;;;5076351;28;20541;-67
2024/02/23 10:50:56;;;;;;;1.85;0.95;;;22.60;52.00;;;;;;5078718;28;20025;-68
2024/02/23 10:53:24;;;;;;;2.13;1.00;;;22.60;51.90;;;;;;5080205;28;20086;-67
2024/02/23 10:55:55;;;;;;;1.42;0.80;;;22.60;51.90;;;;;;5079704;28;20400;-67
2024/02/23 10:58:22;;;;;;;2.72;0.90;;;22.50;51.90;;;;;;5078838;28;20035;-67
2024/02/23 11:00:48;;;;;;;1.92;0.80;;;22.60;51.90;;;;;;5078948;28;20435;-67
2024/02/23 11:03:15;;;;;;;1.63;0.63;;;22.50;51.90;;;;;;5077347;28;20016;-66
2024/02/23 11:05:41;;;;;;;1.48;0.73;;;22.50;52.10;;;;;;5078528;28;20024;-66
2024/02/23 11:08:07;;;;;;;2.50;0.70;;;22.50;52.20;;;;;;5078660;28;20435;-66
2024/02/23 11:10:42;;;;;;;1.85;0.80;;;22.50;52.80;;;;;;5079114;28;20032;-66
2024/02/23 11:13:08;;;;;;;2.42;0.90;;;22.50;52.60;;;;;;5079930;28;20085;-66
2024/02/23 11:15:39;;;;;;;1.15;0.73;;;22.60;52.60;;;;;;5079448;28;20735;-66
2024/02/23 11:18:22;;;;;;;1.27;0.80;;;22.50;52.50;;;;;;5075083;28;20043;-66
2024/02/23 11:20:55;;;;;;;0.60;0.60;;;22.60;52.60;;;;;;5077822;28;20025;-66
2024/02/23 11:23:21;;;;;;;1.15;0.60;;;22.60;52.40;;;;;;5077707;28;20480;-66
2024/02/23 11:26:06;;;;;;;1.05;0.60;;;22.60;52.30;;;;;;5077004;28;20031;-66
2024/02/23 11:28:32;;;;;;;1.83;0.70;;;22.60;52.20;;;;;;5077242;28;20505;-66
2024/02/23 11:31:02;;;;;;;1.33;0.70;;;22.60;52.30;;;;;;5079024;28;20102;-66
2024/02/23 11:33:29;;;;;;;1.35;0.70;;;22.60;52.30;;;;;;5076208;28;20143;-65
2024/02/23 11:36:08;;;;;;;0.80;0.63;;;22.60;52.10;;;;;;5079763;28;20481;-63
2024/02/23 11:38:34;;;;;;;1.27;0.70;;;22.60;52.00;;;;;;5078902;28;20528;-62
2024/02/23 11:41:01;;;;;;;1.35;0.75;;;22.60;52.00;;;;;;5079560;28;20048;-64
2024/02/23 11:43:27;;;;;;;1.83;0.90;;;22.60;52.20;;;;;;5078605;28;20024;-63
2024/02/23 11:45:53;;;;;;;1.67;0.80;;;22.60;52.00;;;;;;5077706;28;20070;-64
2024/02/23 11:48:19;;;;;;;1.80;0.90;;;22.60;51.90;;;;;;5058004;28;20035;-64
2024/02/23 11:50:47;;;;;;;1.38;0.85;;;22.60;51.80;;;;;;5077822;28;20459;-63
2024/02/23 11:53:13;;;;;;;1.98;0.70;;;22.60;51.70;;;;;;5078828;28;20672;-68
2024/02/23 11:55:42;;;;;;;1.15;0.80;;;22.60;51.70;;;;;;5078656;28;20073;-68
2024/02/23 11:58:08;;;;;;;1.98;1.00;;;22.60;51.60;;;;;;5077657;28;20174;-68
2024/02/23 12:00:35;;;;;;;1.60;0.90;;;22.60;51.60;;;;;;5078310;28;20028;-68
2024/02/23 12:03:01;;;;;;;1.10;0.70;;;22.50;51.70;;;;;;5080511;28;20099;-68
2024/02/23 12:05:26;;;;;;;1.20;0.70;;;22.50;51.60;;;;;;5082309;28;20453;-68
2024/02/23 12:07:53;;;;;;;0.80;0.70;;;22.50;51.60;;;;;;5081590;28;20034;-68
2024/02/23 12:10:19;;;;;;;1.25;0.80;;;22.50;51.60;;;;;;5083010;28;20024;-68
2024/02/23 12:12:44;;;;;;;1.08;0.63;;;22.50;51.60;;;;;;5081220;28;20465;-67
2024/02/23 12:15:10;;;;;;;1.08;0.70;;;22.50;51.60;;;;;;5063818;28;20036;-66
2024/02/23 12:17:37;;;;;;;1.17;0.80;;;22.50;51.50;;;;;;5080076;28;20068;-67
2024/02/23 12:20:03;;;;;;;1.15;0.82;;;22.50;51.60;;;;;;5081119;28;20032;-66
2024/02/23 12:22:29;;;;;;;1.35;0.77;;;22.50;51.60;;;;;;5082546;28;20101;-66
2024/02/23 12:24:59;;;;;;;0.90;0.65;;;22.50;51.60;;;;;;5085004;28;20107;-67
2024/02/23 12:27:26;;;;;;;1.10;0.80;;;22.50;51.60;;;;;;5079524;28;20028;-66
2024/02/23 12:29:53;;;;;;;1.40;0.70;;;22.50;51.60;;;;;;5082798;28;20024;-67
2024/02/23 12:32:20;;;;;;;1.38;0.85;;;22.50;51.60;;;;;;5079420;28;20481;-67
2024/02/23 12:34:47;;;;;;;1.20;0.80;;;22.50;51.50;;;;;;5079534;28;20392;-66
2024/02/23 12:37:19;;;;;;;1.00;0.85;;;22.50;51.60;;;;;;5083924;28;20051;-66
2024/02/23 12:39:44;;;;;;;0.77;0.60;;;22.50;51.60;;;;;;5081245;28;20572;-67
2024/02/23 12:42:10;;;;;;;1.10;0.68;;;22.50;51.50;;;;;;5080961;28;20098;-66